Aviation Digital Data Service (ADDS)

Output produced by METARs form (2025 UTC 12 February 2016)
found at http://aviationweather.gov/adds/metars/
 
KCKB 121749Z 1218/1318 27005KT 6SM -SN OVC040 
     TEMPO 1218/1222 4SM -SN BKN030 
     FM122200 27010G19KT P6SM OVC050 
     FM130400 30012G24KT 2SM -SHSN OVC012 
     FM130700 32010G22KT 5SM -SHSN OVC015 
     FM131400 33013G25KT 6SM -SHSN BKN020